createdAt,value
2024-05-09T00:02:16.227Z,101520.31
2024-05-09T00:04:48.456Z,101521.70
2024-05-09T00:07:21.114Z,101523.35
2024-05-09T00:09:53.408Z,101517.52
2024-05-09T00:12:25.740Z,101516.45
2024-05-09T00:14:58.244Z,101517.83
2024-05-09T00:17:31.003Z,101521.54
2024-05-09T00:20:05.309Z,101516.23
2024-05-09T00:22:41.495Z,101514.10
2024-05-09T00:25:13.652Z,101514.96
2024-05-09T00:27:45.807Z,101513.23
2024-05-09T00:30:24.473Z,101510.92
2024-05-09T00:33:05.698Z,101511.61
2024-05-09T00:35:39.366Z,101515.95
2024-05-09T00:38:12.078Z,101518.71
2024-05-09T00:40:46.502Z,101516.31
2024-05-09T00:43:18.991Z,101514.08
2024-05-09T00:45:50.999Z,101517.00
2024-05-09T00:48:23.273Z,101521.07
2024-05-09T00:50:57.666Z,101520.11
2024-05-09T00:53:30.538Z,101523.08
2024-05-09T00:56:03.128Z,101524.81
2024-05-09T00:58:35.416Z,101528.80
2024-05-09T01:01:09.394Z,101530.30
2024-05-09T01:03:41.833Z,101529.54
2024-05-09T01:06:15.007Z,101531.41
2024-05-09T01:08:47.241Z,101533.45
2024-05-09T01:11:20.218Z,101533.52
2024-05-09T01:13:52.526Z,101534.30
2024-05-09T01:16:24.529Z,101530.32
2024-05-09T01:18:56.713Z,101534.11
2024-05-09T01:21:29.007Z,101535.91
2024-05-09T01:24:01.387Z,101532.70
2024-05-09T01:26:33.616Z,101528.30
2024-05-09T01:29:05.901Z,101528.79
2024-05-09T01:31:37.903Z,101532.35
2024-05-09T01:34:10.392Z,101535.98
2024-05-09T01:36:42.717Z,101541.50
2024-05-09T01:39:14.946Z,101541.04
2024-05-09T01:41:47.208Z,101542.84
2024-05-09T01:44:19.582Z,101541.97
2024-05-09T01:46:51.877Z,101539.05
2024-05-09T01:49:24.413Z,101542.06
2024-05-09T01:51:56.574Z,101540.46
2024-05-09T01:54:28.586Z,101541.39
2024-05-09T01:57:00.609Z,101540.42
2024-05-09T01:59:32.864Z,101535.61
2024-05-09T02:02:05.808Z,101532.05
2024-05-09T02:04:38.002Z,101532.23
2024-05-09T02:07:10.243Z,101530.98
2024-05-09T02:09:43.198Z,101527.00
2024-05-09T02:12:15.214Z,101524.33
2024-05-09T02:14:47.403Z,101528.64
2024-05-09T02:17:19.487Z,101530.11
2024-05-09T02:19:51.537Z,101531.25
2024-05-09T02:22:23.588Z,101533.44
2024-05-09T02:24:55.584Z,101538.13
2024-05-09T02:27:27.599Z,101537.48
2024-05-09T02:29:59.525Z,101533.89
2024-05-09T02:32:31.906Z,101536.73
2024-05-09T02:35:04.062Z,101540.28
2024-05-09T02:37:35.924Z,101539.64
2024-05-09T02:40:14.551Z,101540.55
2024-05-09T02:42:50.022Z,101541.39
2024-05-09T02:45:22.048Z,101537.40
2024-05-09T02:47:54.428Z,101535.24
2024-05-09T02:50:34.188Z,101535.05
2024-05-09T02:53:10.699Z,101531.98
2024-05-09T02:55:43.611Z,101533.13
2024-05-09T02:58:16.223Z,101534.31
2024-05-09T03:00:48.509Z,101532.63
2024-05-09T03:03:21.330Z,101530.55
2024-05-09T03:05:53.722Z,101533.10
2024-05-09T03:08:27.993Z,101536.16
2024-05-09T03:10:59.945Z,101538.58
2024-05-09T03:13:32.402Z,101538.17
2024-05-09T03:16:04.951Z,101543.15
2024-05-09T03:18:37.347Z,101547.36
2024-05-09T03:21:10.349Z,101549.00
2024-05-09T03:23:43.770Z,101553.70
2024-05-09T03:26:17.475Z,101555.58
2024-05-09T03:28:49.699Z,101556.25
2024-05-09T03:31:23.414Z,101560.36
2024-05-09T03:33:55.426Z,101557.21
2024-05-09T03:36:27.639Z,101548.33
2024-05-09T03:39:00.152Z,101549.73
2024-05-09T03:41:33.791Z,101552.72
2024-05-09T03:44:06.714Z,101551.13
2024-05-09T03:46:42.024Z,101556.85
2024-05-09T03:49:14.679Z,101556.70
2024-05-09T03:51:47.199Z,101554.92
2024-05-09T03:54:19.457Z,101552.88
2024-05-09T03:56:51.705Z,101551.04
2024-05-09T03:59:23.838Z,101544.70
2024-05-09T04:01:56.629Z,101543.76
2024-05-09T04:04:29.885Z,101539.54
2024-05-09T04:07:02.294Z,101540.17
2024-05-09T04:09:34.729Z,101540.25
2024-05-09T04:12:09.083Z,101541.65
2024-05-09T04:14:42.919Z,101540.83
2024-05-09T04:17:14.811Z,101537.80
2024-05-09T04:19:47.034Z,101536.00
2024-05-09T04:22:19.146Z,101534.80
2024-05-09T04:24:52.792Z,101536.57
2024-05-09T04:27:24.851Z,101534.13
2024-05-09T04:29:57.646Z,101532.55
2024-05-09T04:32:30.125Z,101534.63
2024-05-09T04:35:02.619Z,101535.91
2024-05-09T04:37:34.997Z,101535.15
2024-05-09T04:40:14.166Z,101534.66
2024-05-09T04:42:52.864Z,101534.77
2024-05-09T04:45:25.072Z,101537.22
2024-05-09T04:47:57.922Z,101536.05
2024-05-09T04:50:36.744Z,101535.44
2024-05-09T04:53:16.168Z,101538.94
2024-05-09T04:55:48.386Z,101542.36
2024-05-09T04:58:20.398Z,101541.77
2024-05-09T05:00:52.495Z,101542.36
2024-05-09T05:03:24.946Z,101539.11
2024-05-09T05:05:57.733Z,101544.23
2024-05-09T05:08:29.866Z,101544.06
2024-05-09T05:11:02.824Z,101541.86
2024-05-09T05:13:38.645Z,101537.66
2024-05-09T05:16:12.396Z,101542.77
2024-05-09T05:18:44.849Z,101546.29
2024-05-09T05:21:17.049Z,101547.40
2024-05-09T05:23:51.970Z,101551.11
2024-05-09T05:26:27.708Z,101549.83
2024-05-09T05:29:00.144Z,101547.82
2024-05-09T05:31:32.302Z,101542.19
2024-05-09T05:34:04.366Z,101538.11
2024-05-09T05:36:36.811Z,101536.55
2024-05-09T05:39:09.382Z,101532.67
2024-05-09T05:41:41.814Z,101529.66
2024-05-09T05:44:15.858Z,101534.64
2024-05-09T05:46:48.064Z,101532.48
2024-05-09T05:49:20.658Z,101532.17
2024-05-09T05:51:52.810Z,101530.84
2024-05-09T05:54:27.699Z,101530.73
2024-05-09T05:57:00.686Z,101532.45
2024-05-09T05:59:33.105Z,101527.05
2024-05-09T06:02:07.096Z,101521.88
2024-05-09T06:04:39.299Z,101521.25
2024-05-09T06:07:12.027Z,101519.11
2024-05-09T06:09:46.043Z,101516.15
2024-05-09T06:12:20.328Z,101518.75
2024-05-09T06:14:52.590Z,101518.46
2024-05-09T06:17:25.480Z,101517.67
2024-05-09T06:19:58.250Z,101515.34
2024-05-09T06:22:30.909Z,101517.38
2024-05-09T06:25:13.344Z,101520.88
2024-05-09T06:27:55.943Z,101521.13
2024-05-09T06:30:36.906Z,101514.34
2024-05-09T06:33:22.686Z,101513.21
2024-05-09T06:35:59.363Z,101512.32
2024-05-09T06:38:32.748Z,101514.21
2024-05-09T06:41:05.969Z,101513.33
2024-05-09T06:43:38.767Z,101512.42
2024-05-09T06:46:11.133Z,101516.14
2024-05-09T06:48:45.472Z,101512.25
2024-05-09T06:51:21.283Z,101513.79
2024-05-09T06:53:53.653Z,101510.33
2024-05-09T06:56:27.782Z,101507.96
2024-05-09T06:59:00.097Z,101504.75
2024-05-09T07:01:32.420Z,101508.67
2024-05-09T07:04:07.987Z,101506.03
2024-05-09T07:06:43.031Z,101508.02
2024-05-09T07:09:14.991Z,101507.36
2024-05-09T07:11:49.515Z,101501.92
2024-05-09T07:14:22.173Z,101499.98
2024-05-09T07:16:54.637Z,101499.30
2024-05-09T07:19:26.879Z,101502.81
2024-05-09T07:21:59.924Z,101506.08
2024-05-09T07:24:34.814Z,101504.13
2024-05-09T07:27:07.544Z,101507.14
2024-05-09T07:29:40.086Z,101506.33
2024-05-09T07:32:12.925Z,101502.27
2024-05-09T07:34:45.800Z,101503.92
2024-05-09T07:37:18.420Z,101501.81
2024-05-09T07:39:50.709Z,101500.86
2024-05-09T07:42:22.932Z,101497.55
2024-05-09T07:44:56.940Z,101498.72
2024-05-09T07:48:57.368Z,101494.02
2024-05-09T07:53:36.007Z,101493.77
2024-05-09T07:55:56.961Z,101488.53
2024-05-09T07:58:29.409Z,101491.84
2024-05-09T08:01:05.967Z,101484.97
2024-05-09T08:03:39.786Z,101482.48
2024-05-09T08:06:22.517Z,101485.34
2024-05-09T08:09:00.883Z,101482.41
2024-05-09T08:11:38.838Z,101483.85
2024-05-09T08:14:11.204Z,101481.64
2024-05-09T08:16:43.497Z,101477.34
2024-05-09T08:19:19.194Z,101477.49
2024-05-09T08:21:51.480Z,101475.13
2024-05-09T08:24:36.612Z,101479.08
2024-05-09T08:27:08.876Z,101470.60
2024-05-09T08:29:41.450Z,101466.17
2024-05-09T08:32:13.958Z,101469.45
2024-05-09T08:34:46.494Z,101471.80
2024-05-09T08:37:22.427Z,101469.13
2024-05-09T08:39:57.449Z,101469.05
2024-05-09T08:42:35.389Z,101462.87
2024-05-09T08:45:10.630Z,101461.95
2024-05-09T08:47:43.865Z,101459.00
2024-05-09T08:50:28.933Z,101457.24
2024-05-09T08:53:08.492Z,101456.84
2024-05-09T08:55:43.428Z,101452.20
2024-05-09T08:58:20.474Z,101453.15
2024-05-09T09:00:53.724Z,101452.57
2024-05-09T09:03:31.798Z,101454.30
2024-05-09T09:06:07.888Z,101456.40
2024-05-09T09:08:41.404Z,101452.84
2024-05-09T09:11:13.760Z,101451.02
2024-05-09T09:13:46.163Z,101446.14
2024-05-09T09:16:18.597Z,101446.02
2024-05-09T09:18:51.422Z,101448.88
2024-05-09T09:21:24.959Z,101454.10
2024-05-09T09:24:00.378Z,101450.58
2024-05-09T09:26:34.187Z,101444.73
2024-05-09T09:29:06.367Z,101445.02
2024-05-09T09:31:39.278Z,101442.25
2024-05-09T09:34:11.741Z,101441.77
2024-05-09T09:36:48.935Z,101445.59
2024-05-09T09:39:23.920Z,101442.90
2024-05-09T09:41:59.783Z,101437.48
2024-05-09T09:44:33.067Z,101436.70
2024-05-09T09:47:07.112Z,101438.98
2024-05-09T09:49:40.818Z,101437.45
2024-05-09T09:52:16.563Z,101438.85
2024-05-09T09:54:51.090Z,101435.73
2024-05-09T09:57:24.945Z,101434.45
2024-05-09T09:59:58.509Z,101433.93
2024-05-09T10:02:33.984Z,101429.06
2024-05-09T10:05:06.856Z,101426.30
2024-05-09T10:07:42.991Z,101423.92
2024-05-09T10:10:31.567Z,101426.23
2024-05-09T10:13:06.492Z,101427.29
2024-05-09T10:15:47.981Z,101426.30
2024-05-09T10:18:26.105Z,101422.06
2024-05-09T10:21:00.280Z,101421.66
2024-05-09T10:23:34.471Z,101421.75
2024-05-09T10:26:07.620Z,101417.65
2024-05-09T10:28:45.769Z,101415.77
2024-05-09T10:31:21.381Z,101415.34
2024-05-09T10:33:57.355Z,101419.04
2024-05-09T10:36:29.821Z,101419.31
2024-05-09T10:39:05.328Z,101417.20
2024-05-09T10:41:40.811Z,101416.80
2024-05-09T10:44:17.209Z,101419.73
2024-05-09T10:46:50.316Z,101416.48
2024-05-09T10:49:32.887Z,101413.02
2024-05-09T10:52:06.461Z,101406.95
2024-05-09T10:54:42.068Z,101403.29
2024-05-09T10:57:14.345Z,101393.41
2024-05-09T10:59:46.520Z,101386.36
2024-05-09T11:02:20.103Z,101390.21
2024-05-09T11:04:52.939Z,101389.02
2024-05-09T11:07:29.188Z,101382.73
2024-05-09T11:10:02.978Z,101376.86
2024-05-09T11:12:36.014Z,101377.16
2024-05-09T11:15:11.044Z,101371.48
2024-05-09T11:17:43.437Z,101367.77
2024-05-09T11:20:22.903Z,101367.10
2024-05-09T11:23:05.138Z,101363.54
2024-05-09T11:25:41.174Z,101362.16
2024-05-09T11:28:15.344Z,101361.27
2024-05-09T11:30:52.063Z,101357.91
2024-05-09T11:33:29.916Z,101351.54
2024-05-09T11:36:02.807Z,101350.32
2024-05-09T11:38:35.228Z,101349.65
2024-05-09T11:41:07.720Z,101348.14
2024-05-09T11:43:40.045Z,101347.59
2024-05-09T11:46:15.372Z,101347.45
2024-05-09T11:48:48.135Z,101348.77
2024-05-09T11:51:23.697Z,101346.50
2024-05-09T11:53:56.146Z,101341.81
2024-05-09T11:56:28.555Z,101340.71
2024-05-09T11:59:00.725Z,101337.52
2024-05-09T12:01:33.129Z,101328.96
2024-05-09T12:04:15.758Z,101327.50
2024-05-09T12:06:48.237Z,101323.55
2024-05-09T12:09:20.862Z,101323.73
2024-05-09T12:11:53.110Z,101322.24
2024-05-09T12:14:28.504Z,101325.66
2024-05-09T12:17:11.239Z,101328.73
2024-05-09T12:19:43.875Z,101327.61
2024-05-09T12:22:16.680Z,101326.45
2024-05-09T12:24:51.388Z,101323.11
2024-05-09T12:27:24.044Z,101323.98
2024-05-09T12:29:59.709Z,101322.55
2024-05-09T12:32:52.127Z,101324.96
2024-05-09T12:35:28.098Z,101320.21
2024-05-09T12:38:00.651Z,101321.77
2024-05-09T12:40:36.873Z,101319.08
2024-05-09T12:43:13.273Z,101318.27
2024-05-09T12:45:45.653Z,101313.05
2024-05-09T12:48:20.987Z,101316.46
2024-05-09T12:50:54.912Z,101315.40
2024-05-09T12:53:27.001Z,101311.78
2024-05-09T12:56:02.376Z,101309.91
2024-05-09T12:58:36.000Z,101306.05
2024-05-09T13:01:08.554Z,101304.75
2024-05-09T13:03:43.925Z,101301.77
2024-05-09T13:06:16.176Z,101299.35
2024-05-09T13:08:48.405Z,101292.80
2024-05-09T13:11:20.505Z,101284.77
2024-05-09T13:13:52.796Z,101284.77
2024-05-09T13:16:25.591Z,101280.70
2024-05-09T13:18:58.249Z,101270.73
2024-05-09T13:21:30.744Z,101271.10
2024-05-09T13:24:03.383Z,101270.64
2024-05-09T13:26:35.798Z,101266.45
2024-05-09T13:29:08.351Z,101257.95
2024-05-09T13:31:40.627Z,101255.67
2024-05-09T13:34:12.669Z,101250.02
2024-05-09T13:36:44.797Z,101253.27
2024-05-09T13:39:16.751Z,101249.55
2024-05-09T13:41:48.909Z,101246.90
2024-05-09T13:44:20.920Z,101242.98
2024-05-09T13:46:53.537Z,101240.39
2024-05-09T13:49:25.625Z,101239.73
2024-05-09T13:51:57.871Z,101238.88
2024-05-09T13:54:30.023Z,101239.72
2024-05-09T13:57:03.164Z,101238.73
2024-05-09T13:59:35.128Z,101237.94
2024-05-09T14:02:07.748Z,101235.52
2024-05-09T14:04:40.406Z,101232.36
2024-05-09T14:07:13.325Z,101229.43
2024-05-09T14:09:47.063Z,101225.95
2024-05-09T14:12:19.505Z,101221.38
2024-05-09T14:14:51.526Z,101218.83
2024-05-09T14:17:24.281Z,101218.50
2024-05-09T14:19:57.199Z,101222.02
2024-05-09T14:22:29.931Z,101216.05
2024-05-09T14:25:02.860Z,101211.66
2024-05-09T14:27:35.463Z,101210.11
2024-05-09T14:30:15.061Z,101208.23
2024-05-09T14:32:55.285Z,101197.17
2024-05-09T14:35:27.706Z,101198.75
2024-05-09T14:38:00.496Z,101201.33
2024-05-09T14:40:40.750Z,101201.62
2024-05-09T14:43:19.790Z,101196.02
2024-05-09T14:45:53.564Z,101193.16
2024-05-09T14:48:26.959Z,101193.27
2024-05-09T14:50:58.996Z,101187.48
2024-05-09T14:53:31.336Z,101188.80
2024-05-09T14:56:03.552Z,101184.41
2024-05-09T14:58:35.719Z,101175.20
2024-05-09T15:01:07.879Z,101173.33
2024-05-09T15:03:40.824Z,101172.44
2024-05-09T15:06:13.282Z,101173.02
2024-05-09T15:08:45.502Z,101168.63
2024-05-09T15:11:17.953Z,101161.36
2024-05-09T15:13:50.641Z,101155.50
2024-05-09T15:16:35.077Z,101155.13
2024-05-09T15:19:07.601Z,101150.52
2024-05-09T15:21:40.067Z,101152.80
2024-05-09T15:24:12.831Z,101152.67
2024-05-09T15:26:45.548Z,101153.23
2024-05-09T15:29:17.926Z,101148.39
2024-05-09T15:31:50.250Z,101145.86
2024-05-09T15:34:22.553Z,101142.52
2024-05-09T15:36:55.330Z,101136.52
2024-05-09T15:39:30.135Z,101133.02
2024-05-09T15:42:05.788Z,101132.17
2024-05-09T15:44:38.003Z,101125.40
2024-05-09T15:47:10.029Z,101120.00
2024-05-09T15:49:42.748Z,101117.90
2024-05-09T15:52:15.773Z,101119.24
2024-05-09T15:54:50.317Z,101118.58
2024-05-09T15:57:23.490Z,101119.04
2024-05-09T15:59:55.633Z,101115.92
2024-05-09T16:02:28.010Z,101114.04
2024-05-09T16:05:00.949Z,101109.49
2024-05-09T16:07:37.244Z,101107.45
2024-05-09T16:10:13.196Z,101103.88
2024-05-09T16:12:48.743Z,101106.76
2024-05-09T16:15:21.084Z,101098.71
2024-05-09T16:17:53.916Z,101095.23
2024-05-09T16:20:49.387Z,101090.20
2024-05-09T16:23:22.950Z,101091.43
2024-05-09T16:25:55.384Z,101090.67
2024-05-09T16:28:28.347Z,101095.84
2024-05-09T16:31:01.558Z,101090.27
2024-05-09T16:33:33.862Z,101090.88
2024-05-09T16:36:07.110Z,101093.58
2024-05-09T16:38:40.908Z,101092.36
2024-05-09T16:41:14.993Z,101093.84
2024-05-09T16:43:47.122Z,101094.15
2024-05-09T16:46:31.879Z,101092.38
2024-05-09T16:49:05.760Z,101095.19
2024-05-09T16:51:38.245Z,101091.41
2024-05-09T16:54:10.688Z,101093.59
2024-05-09T16:56:43.236Z,101093.45
2024-05-09T16:59:15.435Z,101091.32
2024-05-09T17:01:47.611Z,101091.58
2024-05-09T17:04:20.087Z,101090.50
2024-05-09T17:06:52.770Z,101087.26
2024-05-09T17:09:25.007Z,101087.15
2024-05-09T17:11:57.632Z,101082.50
2024-05-09T17:14:29.738Z,101079.95
2024-05-09T17:17:01.960Z,101079.59
2024-05-09T17:19:34.125Z,101078.37
2024-05-09T17:22:06.508Z,101078.66
2024-05-09T17:24:38.750Z,101079.92
2024-05-09T17:27:11.583Z,101080.09
2024-05-09T17:29:43.826Z,101082.10
2024-05-09T17:32:16.313Z,101078.46
2024-05-09T17:34:49.369Z,101079.22
2024-05-09T17:37:21.902Z,101076.56
2024-05-09T17:39:55.668Z,101075.70
2024-05-09T17:42:28.145Z,101075.15
2024-05-09T17:45:00.759Z,101078.73
2024-05-09T17:47:33.036Z,101082.23
2024-05-09T17:50:09.569Z,101082.31
2024-05-09T17:52:43.707Z,101085.54
2024-05-09T17:55:16.442Z,101085.33
2024-05-09T17:57:48.846Z,101085.05
2024-05-09T18:00:29.248Z,101081.47
2024-05-09T18:03:12.064Z,101085.73
2024-05-09T18:05:47.066Z,101085.84
2024-05-09T18:08:19.812Z,101087.93
2024-05-09T18:10:54.053Z,101089.55
2024-05-09T18:13:29.041Z,101096.75
2024-05-09T18:16:01.627Z,101099.49
2024-05-09T18:18:33.767Z,101100.08
2024-05-09T18:21:06.640Z,101097.67
2024-05-09T18:23:38.567Z,101101.40
2024-05-09T18:26:10.772Z,101107.48
2024-05-09T18:28:43.486Z,101111.68
2024-05-09T18:31:17.345Z,101116.14
2024-05-09T18:33:50.851Z,101117.19
2024-05-09T18:36:23.738Z,101121.73
2024-05-09T18:38:56.284Z,101120.21
2024-05-09T18:41:28.555Z,101123.77
2024-05-09T18:44:01.052Z,101125.81
2024-05-09T18:46:33.539Z,101129.73
2024-05-09T18:49:05.792Z,101130.89
2024-05-09T18:51:37.986Z,101131.20
2024-05-09T18:54:09.914Z,101134.61
2024-05-09T18:56:43.117Z,101132.74
2024-05-09T18:59:15.616Z,101132.51
2024-05-09T19:01:47.708Z,101134.09
2024-05-09T19:04:20.191Z,101133.00
2024-05-09T19:06:55.800Z,101131.89
2024-05-09T19:09:28.171Z,101129.89
2024-05-09T19:12:03.279Z,101128.08
2024-05-09T19:14:35.441Z,101131.20
2024-05-09T19:17:07.953Z,101130.20
2024-05-09T19:19:40.638Z,101128.88
2024-05-09T19:22:13.055Z,101129.47
2024-05-09T19:24:45.578Z,101128.52
2024-05-09T19:27:18.154Z,101126.05
2024-05-09T19:29:52.261Z,101127.52
2024-05-09T19:32:26.465Z,101133.06
2024-05-09T19:34:59.890Z,101135.52
2024-05-09T19:37:32.650Z,101137.98
2024-05-09T19:40:08.534Z,101138.94
2024-05-09T19:42:45.583Z,101137.78
2024-05-09T19:45:18.291Z,101137.18
2024-05-09T19:47:50.915Z,101135.91
2024-05-09T19:50:31.904Z,101138.85
2024-05-09T19:53:23.504Z,101137.39
2024-05-09T19:55:57.937Z,101140.94
2024-05-09T19:58:30.940Z,101144.07
2024-05-09T20:01:03.832Z,101143.36
2024-05-09T20:03:38.445Z,101145.19
2024-05-09T20:06:10.909Z,101144.94
2024-05-09T20:08:43.333Z,101144.21
2024-05-09T20:11:17.763Z,101146.95
2024-05-09T20:13:49.836Z,101145.15
2024-05-09T20:16:22.215Z,101145.58
2024-05-09T20:18:54.583Z,101147.11
2024-05-09T20:21:29.805Z,101147.27
2024-05-09T20:24:05.049Z,101150.29
2024-05-09T20:26:37.316Z,101149.86
2024-05-09T20:29:09.410Z,101148.64
2024-05-09T20:31:44.087Z,101145.90
2024-05-09T20:34:16.190Z,101146.54
2024-05-09T20:36:51.816Z,101149.05
2024-05-09T20:39:28.609Z,101152.20
2024-05-09T20:42:03.271Z,101154.00
2024-05-09T20:44:35.520Z,101152.90
2024-05-09T20:47:07.938Z,101149.10
2024-05-09T20:49:40.452Z,101146.16
2024-05-09T20:52:12.717Z,101141.84
2024-05-09T20:54:44.941Z,101142.20
2024-05-09T20:57:16.949Z,101142.33
2024-05-09T20:59:48.786Z,101142.85
2024-05-09T21:02:21.592Z,101141.98
2024-05-09T21:04:56.877Z,101138.98
2024-05-09T21:07:29.625Z,101138.14
2024-05-09T21:10:15.932Z,101139.40
2024-05-09T21:12:54.711Z,101138.91
2024-05-09T21:15:27.024Z,101142.66
2024-05-09T21:17:59.869Z,101144.43
2024-05-09T21:20:34.781Z,101144.08
2024-05-09T21:23:07.908Z,101138.07
2024-05-09T21:25:40.391Z,101135.45
2024-05-09T21:28:14.696Z,101133.40
2024-05-09T21:30:47.669Z,101137.65
2024-05-09T21:33:20.150Z,101137.37
2024-05-09T21:35:52.184Z,101139.25
2024-05-09T21:38:24.605Z,101134.91
2024-05-09T21:40:56.805Z,101134.66
2024-05-09T21:43:31.471Z,101132.92
2024-05-09T21:46:04.135Z,101130.88
2024-05-09T21:48:37.037Z,101130.65
2024-05-09T21:51:15.854Z,101132.98
2024-05-09T21:53:47.887Z,101132.23
2024-05-09T21:56:19.869Z,101133.09
2024-05-09T21:58:54.413Z,101131.74
2024-05-09T22:01:26.252Z,101132.92
2024-05-09T22:03:58.412Z,101133.23
2024-05-09T22:06:30.550Z,101130.93
2024-05-09T22:09:05.050Z,101126.05
2024-05-09T22:11:36.932Z,101123.34
2024-05-09T22:14:09.000Z,101124.34
2024-05-09T22:16:44.214Z,101124.77
2024-05-09T22:19:16.754Z,101125.39
2024-05-09T22:21:49.412Z,101124.77
2024-05-09T22:24:21.631Z,101122.64
2024-05-09T22:26:55.189Z,101122.83
2024-05-09T22:29:27.561Z,101123.48
2024-05-09T22:31:59.653Z,101124.14
2024-05-09T22:34:32.294Z,101119.68
2024-05-09T22:37:04.624Z,101120.30
2024-05-09T22:39:37.026Z,101120.71
2024-05-09T22:42:08.987Z,101119.13
2024-05-09T22:44:41.715Z,101119.89
2024-05-09T22:47:13.945Z,101120.42
2024-05-09T22:49:46.156Z,101118.83
2024-05-09T22:52:18.971Z,101121.86
2024-05-09T22:54:51.203Z,101120.69
2024-05-09T22:57:23.104Z,101122.64
2024-05-09T22:59:55.712Z,101124.03
2024-05-09T23:02:27.930Z,101124.92
2024-05-09T23:05:00.064Z,101126.78
2024-05-09T23:07:32.835Z,101126.03
2024-05-09T23:10:12.948Z,101126.30
2024-05-09T23:12:52.071Z,101120.98
2024-05-09T23:15:24.370Z,101122.35
2024-05-09T23:17:57.288Z,101115.59
2024-05-09T23:20:36.969Z,101119.30
2024-05-09T23:23:12.393Z,101118.88
2024-05-09T23:25:44.514Z,101115.72
2024-05-09T23:28:16.975Z,101113.30
2024-05-09T23:30:49.266Z,101110.08
2024-05-09T23:33:21.595Z,101109.49
2024-05-09T23:35:53.843Z,101105.16
2024-05-09T23:38:26.366Z,101105.90
2024-05-09T23:40:58.389Z,101102.67
2024-05-09T23:43:30.570Z,101105.25
2024-05-09T23:46:02.884Z,101103.70
2024-05-09T23:48:35.079Z,101104.50
2024-05-09T23:51:07.390Z,101099.64
2024-05-09T23:53:39.725Z,101100.73
2024-05-09T23:56:14.259Z,101093.67
2024-05-09T23:58:47.170Z,101095.23
